sensor_id;sensor_type;location;lat;lon;timestamp;pressure;altitude;pressure_sealevel;temperature;humidity
18795;BME280;29610;49.022;12.114;2022-09-03T00:00:00;97556.13;;;13.21;100.00
18795;BME280;29610;49.022;12.114;2022-09-03T00:02:39;97551.31;;;13.18;100.00
18795;BME280;29610;49.022;12.114;2022-09-03T00:05:22;97552.78;;;13.27;100.00
18795;BME280;29610;49.022;12.114;2022-09-03T00:08:00;97549.63;;;13.26;100.00
18795;BME280;29610;49.022;12.114;2022-09-03T00:10:40;97554.03;;;13.18;100.00
18795;BME280;29610;49.022;12.114;2022-09-03T00:13:16;97550.75;;;13.24;100.00
18795;BME280;29610;49.022;12.114;2022-09-03T00:15:48;97545.28;;;13.24;100.00
18795;BME280;29610;49.022;12.114;2022-09-03T00:18:22;97552.13;;;13.18;100.00
18795;BME280;29610;49.022;12.114;2022-09-03T00:20:59;97545.19;;;13.21;100.00
18795;BME280;29610;49.022;12.114;2022-09-03T00:23:41;97550.19;;;13.19;100.00
18795;BME280;29610;49.022;12.114;2022-09-03T00:26:21;97552.78;;;13.27;100.00
18795;BME280;29610;49.022;12.114;2022-09-03T00:28:58;97547.69;;;13.26;100.00
18795;BME280;29610;49.022;12.114;2022-09-03T00:31:35;97552.56;;;13.33;100.00
18795;BME280;29610;49.022;12.114;2022-09-03T00:34:14;97554.59;;;13.36;100.00
18795;BME280;29610;49.022;12.114;2022-09-03T00:36:45;97550.75;;;13.37;100.00
18795;BME280;29610;49.022;12.114;2022-09-03T00:39:16;97544.59;;;13.27;100.00
18795;BME280;29610;49.022;12.114;2022-09-03T00:42:11;97554.03;;;13.18;100.00
18795;BME280;29610;49.022;12.114;2022-09-03T00:45:07;97549.75;;;13.05;100.00
18795;BME280;29610;49.022;12.114;2022-09-03T00:47:56;97548.09;;;12.92;100.00
18795;BME280;29610;49.022;12.114;2022-09-03T00:50:44;97551.72;;;12.84;100.00
18795;BME280;29610;49.022;12.114;2022-09-03T00:53:27;97563.88;;;12.86;100.00
18795;BME280;29610;49.022;12.114;2022-09-03T00:56:17;97566.38;;;12.79;100.00
18795;BME280;29610;49.022;12.114;2022-09-03T00:59:12;97563.66;;;12.79;100.00
18795;BME280;29610;49.022;12.114;2022-09-03T01:02:00;97564.34;;;12.76;100.00
18795;BME280;29610;49.022;12.114;2022-09-03T01:04:46;97569.19;;;12.71;100.00
18795;BME280;29610;49.022;12.114;2022-09-03T01:07:32;97564.50;;;12.59;100.00
18795;BME280;29610;49.022;12.114;2022-09-03T01:10:17;97568.50;;;12.62;100.00
18795;BME280;29610;49.022;12.114;2022-09-03T01:12:59;97574.19;;;12.69;100.00
18795;BME280;29610;49.022;12.114;2022-09-03T01:15:42;97577.13;;;12.64;100.00
18795;BME280;29610;49.022;12.114;2022-09-03T01:18:22;97577.22;;;12.55;100.00
18795;BME280;29610;49.022;12.114;2022-09-03T01:21:12;97579.06;;;12.63;100.00
18795;BME280;29610;49.022;12.114;2022-09-03T01:24:21;97564.50;;;12.59;100.00
18795;BME280;29610;49.022;12.114;2022-09-03T01:27:16;97563.34;;;12.48;100.00
18795;BME280;29610;49.022;12.114;2022-09-03T01:29:56;97569.34;;;12.42;100.00
18795;BME280;29610;49.022;12.114;2022-09-03T01:32:38;97560.50;;;12.45;100.00
18795;BME280;29610;49.022;12.114;2022-09-03T01:35:18;97564.50;;;12.47;100.00
18795;BME280;29610;49.022;12.114;2022-09-03T01:38:11;97561.50;;;12.40;100.00
18795;BME280;29610;49.022;12.114;2022-09-03T01:40:59;97561.44;;;12.49;100.00
18795;BME280;29610;49.022;12.114;2022-09-03T01:44:01;97561.31;;;12.57;100.00
18795;BME280;29610;49.022;12.114;2022-09-03T01:46:38;97568.59;;;12.53;100.00
18795;BME280;29610;49.022;12.114;2022-09-03T01:49:18;97561.22;;;12.54;100.00
18795;BME280;29610;49.022;12.114;2022-09-03T01:51:57;97565.25;;;12.48;100.00
18795;BME280;29610;49.022;12.114;2022-09-03T01:54:50;97562.59;;;12.60;100.00
18795;BME280;29610;49.022;12.114;2022-09-03T01:57:46;97558.84;;;12.64;100.00
18795;BME280;29610;49.022;12.114;2022-09-03T02:00:18;97562.94;;;12.58;100.00
18795;BME280;29610;49.022;12.114;2022-09-03T02:02:50;97561.09;;;12.62;100.00
18795;BME280;29610;49.022;12.114;2022-09-03T02:05:22;97553.47;;;12.56;100.00
18795;BME280;29610;49.022;12.114;2022-09-03T02:07:59;97560.16;;;12.46;100.00
18795;BME280;29610;49.022;12.114;2022-09-03T02:10:37;97559.44;;;12.37;100.00
18795;BME280;29610;49.022;12.114;2022-09-03T02:13:11;97551.75;;;12.39;100.00
18795;BME280;29610;49.022;12.114;2022-09-03T02:15:45;97559.38;;;12.46;100.00
18795;BME280;29610;49.022;12.114;2022-09-03T02:18:19;97551.41;;;12.41;100.00
18795;BME280;29610;49.022;12.114;2022-09-03T02:20:52;97559.25;;;12.42;100.00
18795;BME280;29610;49.022;12.114;2022-09-03T02:23:22;97550.38;;;12.33;100.00
18795;BME280;29610;49.022;12.114;2022-09-03T02:25:58;97548.63;;;12.29;100.00
18795;BME280;29610;49.022;12.114;2022-09-03T02:28:32;97553.16;;;12.25;100.00
18795;BME280;29610;49.022;12.114;2022-09-03T02:31:06;97553.25;;;12.16;100.00
18795;BME280;29610;49.022;12.114;2022-09-03T02:33:40;97556.59;;;12.01;100.00
18795;BME280;29610;49.022;12.114;2022-09-03T02:36:14;97556.94;;;12.00;100.00
18795;BME280;29610;49.022;12.114;2022-09-03T02:38:44;97552.94;;;11.97;100.00
18795;BME280;29610;49.022;12.114;2022-09-03T02:41:13;97551.69;;;11.95;100.00
18795;BME280;29610;49.022;12.114;2022-09-03T02:43:48;97556.13;;;11.99;100.00
18795;BME280;29610;49.022;12.114;2022-09-03T02:46:22;97554.31;;;12.03;100.00
18795;BME280;29610;49.022;12.114;2022-09-03T02:48:55;97554.38;;;12.15;100.00
18795;BME280;29610;49.022;12.114;2022-09-03T02:51:23;97560.28;;;12.17;100.00
18795;BME280;29610;49.022;12.114;2022-09-03T02:53:53;97546.00;;;12.20;100.00
18795;BME280;29610;49.022;12.114;2022-09-03T02:56:21;97547.38;;;12.26;100.00
18795;BME280;29610;49.022;12.114;2022-09-03T02:58:52;97547.03;;;12.28;100.00
18795;BME280;29610;49.022;12.114;2022-09-03T03:01:21;97556.22;;;12.23;100.00
18795;BME280;29610;49.022;12.114;2022-09-03T03:03:51;97551.16;;;12.34;100.00
18795;BME280;29610;49.022;12.114;2022-09-03T03:06:21;97545.50;;;12.39;100.00
18795;BME280;29610;49.022;12.114;2022-09-03T03:08:50;97547.25;;;12.23;100.00
18795;BME280;29610;49.022;12.114;2022-09-03T03:11:21;97545.47;;;12.27;100.00
18795;BME280;29610;49.022;12.114;2022-09-03T03:13:52;97540.16;;;12.42;100.00
18795;BME280;29610;49.022;12.114;2022-09-03T03:16:21;97555.84;;;12.45;100.00
18795;BME280;29610;49.022;12.114;2022-09-03T03:18:50;97557.91;;;12.48;100.00
18795;BME280;29610;49.022;12.114;2022-09-03T03:21:20;97554.28;;;12.56;100.00
18795;BME280;29610;49.022;12.114;2022-09-03T03:23:49;97562.38;;;12.65;100.00
18795;BME280;29610;49.022;12.114;2022-09-03T03:26:20;97564.66;;;12.75;100.00
18795;BME280;29610;49.022;12.114;2022-09-03T03:28:55;97565.25;;;12.80;100.00
18795;BME280;29610;49.022;12.114;2022-09-03T03:31:25;97564.09;;;12.81;100.00
18795;BME280;29610;49.022;12.114;2022-09-03T03:33:55;97558.09;;;12.88;100.00
18795;BME280;29610;49.022;12.114;2022-09-03T03:36:29;97551.72;;;12.96;100.00
18795;BME280;29610;49.022;12.114;2022-09-03T03:38:59;97549.81;;;12.96;100.00
18795;BME280;29610;49.022;12.114;2022-09-03T03:41:30;97545.34;;;12.80;100.00
18795;BME280;29610;49.022;12.114;2022-09-03T03:44:02;97554.59;;;12.87;100.00
18795;BME280;29610;49.022;12.114;2022-09-03T03:46:34;97552.19;;;12.86;100.00
18795;BME280;29610;49.022;12.114;2022-09-03T03:49:03;97562.38;;;12.77;100.00
18795;BME280;29610;49.022;12.114;2022-09-03T03:51:34;97556.16;;;12.76;100.00
18795;BME280;29610;49.022;12.114;2022-09-03T03:54:04;97551.28;;;12.82;100.00
18795;BME280;29610;49.022;12.114;2022-09-03T03:56:33;97556.50;;;12.87;100.00
18795;BME280;29610;49.022;12.114;2022-09-03T03:59:03;97552.16;;;12.74;100.00
18795;BME280;29610;49.022;12.114;2022-09-03T04:01:32;97554.56;;;12.75;100.00
18795;BME280;29610;49.022;12.114;2022-09-03T04:04:01;97562.16;;;12.70;100.00
18795;BME280;29610;49.022;12.114;2022-09-03T04:06:33;97553.19;;;12.69;100.00
18795;BME280;29610;49.022;12.114;2022-09-03T04:09:01;97557.94;;;12.60;100.00
18795;BME280;29610;49.022;12.114;2022-09-03T04:11:30;97569.88;;;12.68;100.00
18795;BME280;29610;49.022;12.114;2022-09-03T04:13:58;97555.22;;;12.60;100.00
18795;BME280;29610;49.022;12.114;2022-09-03T04:16:28;97558.16;;;12.55;100.00
18795;BME280;29610;49.022;12.114;2022-09-03T04:18:58;97558.16;;;12.55;100.00
18795;BME280;29610;49.022;12.114;2022-09-03T04:21:29;97555.84;;;12.45;100.00
18795;BME280;29610;49.022;12.114;2022-09-03T04:23:59;97556.25;;;12.35;100.00
18795;BME280;29610;49.022;12.114;2022-09-03T04:26:30;97558.97;;;12.35;100.00
18795;BME280;29610;49.022;12.114;2022-09-03T04:29:02;97559.41;;;12.25;100.00
18795;BME280;29610;49.022;12.114;2022-09-03T04:31:31;97559.84;;;12.27;100.00
18795;BME280;29610;49.022;12.114;2022-09-03T04:34:01;97564.53;;;12.27;100.00
18795;BME280;29610;49.022;12.114;2022-09-03T04:36:32;97555.88;;;12.25;100.00
18795;BME280;29610;49.022;12.114;2022-09-03T04:39:02;97566.31;;;12.23;100.00
18795;BME280;29610;49.022;12.114;2022-09-03T04:41:31;97562.00;;;12.22;100.00
18795;BME280;29610;49.022;12.114;2022-09-03T04:44:00;97562.00;;;12.22;100.00
18795;BME280;29610;49.022;12.114;2022-09-03T04:46:28;97573.47;;;12.27;100.00
18795;BME280;29610;49.022;12.114;2022-09-03T04:49:00;97587.09;;;12.27;100.00
18795;BME280;29610;49.022;12.114;2022-09-03T04:51:29;97571.09;;;12.26;100.00
18795;BME280;29610;49.022;12.114;2022-09-03T04:54:01;97577.34;;;12.26;100.00
18795;BME280;29610;49.022;12.114;2022-09-03T04:56:32;97577.50;;;12.30;100.00
18795;BME280;29610;49.022;12.114;2022-09-03T04:59:04;97579.28;;;12.26;100.00
18795;BME280;29610;49.022;12.114;2022-09-03T05:01:35;97580.03;;;12.14;100.00
18795;BME280;29610;49.022;12.114;2022-09-03T05:04:05;97585.16;;;12.16;100.00
18795;BME280;29610;49.022;12.114;2022-09-03T05:06:35;97574.41;;;12.31;100.00
18795;BME280;29610;49.022;12.114;2022-09-03T05:09:05;97577.38;;;12.38;100.00
18795;BME280;29610;49.022;12.114;2022-09-03T05:11:34;97569.97;;;12.27;100.00
18795;BME280;29610;49.022;12.114;2022-09-03T05:14:03;97577.50;;;12.30;100.00
18795;BME280;29610;49.022;12.114;2022-09-03T05:16:33;97583.16;;;12.37;100.00
18795;BME280;29610;49.022;12.114;2022-09-03T05:19:02;97577.78;;;12.49;100.00
18795;BME280;29610;49.022;12.114;2022-09-03T05:21:33;97581.34;;;12.61;100.00
18795;BME280;29610;49.022;12.114;2022-09-03T05:24:05;97578.97;;;12.72;100.00
18795;BME280;29610;49.022;12.114;2022-09-03T05:26:37;97573.13;;;12.94;100.00
18795;BME280;29610;49.022;12.114;2022-09-03T05:29:07;97576.09;;;13.01;100.00
18795;BME280;29610;49.022;12.114;2022-09-03T05:31:37;97577.03;;;13.05;100.00
18795;BME280;29610;49.022;12.114;2022-09-03T05:34:07;97577.03;;;13.17;100.00
18795;BME280;29610;49.022;12.114;2022-09-03T05:36:42;97576.34;;;13.44;100.00
18795;BME280;29610;49.022;12.114;2022-09-03T05:39:14;97569.59;;;13.78;100.00
18795;BME280;29610;49.022;12.114;2022-09-03T05:41:43;97578.88;;;14.01;100.00
18795;BME280;29610;49.022;12.114;2022-09-03T05:44:11;97567.59;;;14.02;100.00
18795;BME280;29610;49.022;12.114;2022-09-03T05:46:40;97573.56;;;14.20;100.00
18795;BME280;29610;49.022;12.114;2022-09-03T05:49:09;97572.56;;;14.24;100.00
18795;BME280;29610;49.022;12.114;2022-09-03T05:51:38;97573.56;;;14.20;100.00
18795;BME280;29610;49.022;12.114;2022-09-03T05:54:08;97576.88;;;14.25;100.00
18795;BME280;29610;49.022;12.114;2022-09-03T05:56:38;97575.41;;;14.28;100.00
18795;BME280;29610;49.022;12.114;2022-09-03T05:59:09;97576.56;;;14.03;100.00
18795;BME280;29610;49.022;12.114;2022-09-03T06:01:43;97576.41;;;13.84;100.00
18795;BME280;29610;49.022;12.114;2022-09-03T06:04:19;97568.53;;;13.82;100.00
18795;BME280;29610;49.022;12.114;2022-09-03T06:06:48;97570.34;;;13.90;100.00
18795;BME280;29610;49.022;12.114;2022-09-03T06:09:19;97585.41;;;13.84;100.00
18795;BME280;29610;49.022;12.114;2022-09-03T06:11:52;97582.59;;;14.08;100.00
18795;BME280;29610;49.022;12.114;2022-09-03T06:14:24;97581.25;;;14.42;100.00
18795;BME280;29610;49.022;12.114;2022-09-03T06:16:53;97584.47;;;14.59;100.00
18795;BME280;29610;49.022;12.114;2022-09-03T06:19:23;97583.34;;;14.76;100.00
18795;BME280;29610;49.022;12.114;2022-09-03T06:21:51;97586.03;;;15.04;100.00
18795;BME280;29610;49.022;12.114;2022-09-03T06:24:21;97586.47;;;15.21;100.00
18795;BME280;29610;49.022;12.114;2022-09-03T06:26:56;97581.72;;;15.18;100.00
18795;BME280;29610;49.022;12.114;2022-09-03T06:29:25;97581.28;;;15.16;100.00
18795;BME280;29610;49.022;12.114;2022-09-03T06:31:54;97581.09;;;15.25;100.00
18795;BME280;29610;49.022;12.114;2022-09-03T06:34:23;97586.31;;;15.45;100.00
18795;BME280;29610;49.022;12.114;2022-09-03T06:36:53;97591.41;;;15.62;100.00
18795;BME280;29610;49.022;12.114;2022-09-03T06:39:22;97586.88;;;15.85;100.00
18795;BME280;29610;49.022;12.114;2022-09-03T06:41:51;97594.03;;;16.09;100.00
18795;BME280;29610;49.022;12.114;2022-09-03T06:44:28;97597.88;;;16.43;100.00
18795;BME280;29610;49.022;12.114;2022-09-03T06:46:57;97604.28;;;16.66;100.00
18795;BME280;29610;49.022;12.114;2022-09-03T06:49:27;97605.38;;;16.84;100.00
18795;BME280;29610;49.022;12.114;2022-09-03T06:51:57;97601.28;;;17.16;100.00
18795;BME280;29610;49.022;12.114;2022-09-03T06:54:27;97600.66;;;17.26;100.00
18795;BME280;29610;49.022;12.114;2022-09-03T06:56:56;97602.28;;;17.49;100.00
18795;BME280;29610;49.022;12.114;2022-09-03T06:59:25;97606.94;;;17.45;100.00
18795;BME280;29610;49.022;12.114;2022-09-03T07:01:56;97608.41;;;17.43;100.00
18795;BME280;29610;49.022;12.114;2022-09-03T07:04:27;97605.00;;;17.27;100.00
18795;BME280;29610;49.022;12.114;2022-09-03T07:06:55;97611.47;;;17.38;100.00
18795;BME280;29610;49.022;12.114;2022-09-03T07:09:24;97598.69;;;17.45;100.00
18795;BME280;29610;49.022;12.114;2022-09-03T07:11:53;97607.16;;;17.60;100.00
18795;BME280;29610;49.022;12.114;2022-09-03T07:14:22;97598.38;;;17.77;100.00
18795;BME280;29610;49.022;12.114;2022-09-03T07:16:50;97598.75;;;17.75;100.00
18795;BME280;29610;49.022;12.114;2022-09-03T07:19:20;97596.75;;;17.72;100.00
18795;BME280;29610;49.022;12.114;2022-09-03T07:21:49;97588.00;;;17.44;100.00
18795;BME280;29610;49.022;12.114;2022-09-03T07:24:18;97590.16;;;17.54;100.00
18795;BME280;29610;49.022;12.114;2022-09-03T07:26:48;97592.19;;;17.83;100.00
18795;BME280;29610;49.022;12.114;2022-09-03T07:29:18;97595.81;;;18.17;100.00
18795;BME280;29610;49.022;12.114;2022-09-03T07:31:50;97594.16;;;18.38;100.00
18795;BME280;29610;49.022;12.114;2022-09-03T07:34:21;97600.69;;;18.30;100.00
18795;BME280;29610;49.022;12.114;2022-09-03T07:36:53;97598.91;;;18.41;100.00
18795;BME280;29610;49.022;12.114;2022-09-03T07:39:21;97600.16;;;18.80;100.00
18795;BME280;29610;49.022;12.114;2022-09-03T07:41:50;97603.91;;;19.02;100.00
18795;BME280;29610;49.022;12.114;2022-09-03T07:44:19;97614.63;;;19.47;100.00
18795;BME280;29610;49.022;12.114;2022-09-03T07:46:50;97605.31;;;19.66;100.00
18795;BME280;29610;49.022;12.114;2022-09-03T07:49:20;97607.06;;;19.88;100.00
18795;BME280;29610;49.022;12.114;2022-09-03T07:51:49;97606.81;;;20.10;100.00
18795;BME280;29610;49.022;12.114;2022-09-03T07:54:21;97606.22;;;20.42;100.00
18795;BME280;29610;49.022;12.114;2022-09-03T07:56:52;97604.41;;;20.74;100.00
18795;BME280;29610;49.022;12.114;2022-09-03T07:59:22;97604.88;;;20.97;100.00
18795;BME280;29610;49.022;12.114;2022-09-03T08:01:51;97612.78;;;21.02;100.00
18795;BME280;29610;49.022;12.114;2022-09-03T08:04:20;97602.56;;;21.34;100.00
18795;BME280;29610;49.022;12.114;2022-09-03T08:06:49;97607.31;;;21.26;100.00
18795;BME280;29610;49.022;12.114;2022-09-03T08:09:21;97606.91;;;21.38;100.00
18795;BME280;29610;49.022;12.114;2022-09-03T08:11:50;97607.34;;;21.58;100.00
18795;BME280;29610;49.022;12.114;2022-09-03T08:14:19;97604.19;;;21.98;100.00
18795;BME280;29610;49.022;12.114;2022-09-03T08:16:48;97605.34;;;22.11;100.00
18795;BME280;29610;49.022;12.114;2022-09-03T08:19:17;97610.44;;;22.30;100.00
18795;BME280;29610;49.022;12.114;2022-09-03T08:21:47;97600.09;;;22.48;100.00
18795;BME280;29610;49.022;12.114;2022-09-03T08:24:17;97610.41;;;22.37;100.00
18795;BME280;29610;49.022;12.114;2022-09-03T08:26:47;97610.13;;;22.00;100.00
18795;BME280;29610;49.022;12.114;2022-09-03T08:29:20;97610.06;;;22.25;100.00
18795;BME280;29610;49.022;12.114;2022-09-03T08:31:49;97603.75;;;22.17;100.00
18795;BME280;29610;49.022;12.114;2022-09-03T08:34:18;97603.75;;;22.17;100.00
18795;BME280;29610;49.022;12.114;2022-09-03T08:36:48;97608.91;;;21.69;100.00
18795;BME280;29610;49.022;12.114;2022-09-03T08:39:18;97610.91;;;21.58;100.00
18795;BME280;29610;49.022;12.114;2022-09-03T08:42:12;97609.28;;;21.29;100.00
18795;BME280;29610;49.022;12.114;2022-09-03T08:44:49;97610.13;;;21.65;100.00
18795;BME280;29610;49.022;12.114;2022-09-03T08:47:27;97612.47;;;21.88;100.00
18795;BME280;29610;49.022;12.114;2022-09-03T08:50:03;97621.16;;;21.40;100.00
18795;BME280;29610;49.022;12.114;2022-09-03T08:52:45;97609.28;;;21.75;100.00
18795;BME280;29610;49.022;12.114;2022-09-03T08:55:23;97614.06;;;21.74;100.00
18795;BME280;29610;49.022;12.114;2022-09-03T08:58:01;97601.44;;;21.77;100.00
18795;BME280;29610;49.022;12.114;2022-09-03T09:00:45;97610.13;;;21.79;100.00
18795;BME280;29610;49.022;12.114;2022-09-03T09:03:32;97607.72;;;21.56;100.00
18795;BME280;29610;49.022;12.114;2022-09-03T09:06:22;97606.53;;;21.43;100.00
18795;BME280;29610;49.022;12.114;2022-09-03T09:09:11;97600.63;;;21.62;100.00
18795;BME280;29610;49.022;12.114;2022-09-03T09:11:57;97597.09;;;21.76;100.00
18795;BME280;29610;49.022;12.114;2022-09-03T09:14:35;97593.50;;;21.97;100.00
18795;BME280;29610;49.022;12.114;2022-09-03T09:17:27;97594.31;;;21.87;100.00
18795;BME280;29610;49.022;12.114;2022-09-03T09:20:09;97589.94;;;21.93;100.00
18795;BME280;29610;49.022;12.114;2022-09-03T09:22:46;97584.81;;;21.88;100.00
18795;BME280;29610;49.022;12.114;2022-09-03T09:25:21;97590.72;;;21.51;100.00
18795;BME280;29610;49.022;12.114;2022-09-03T09:27:59;97592.34;;;21.77;100.00
18795;BME280;29610;49.022;12.114;2022-09-03T09:30:30;97586.41;;;21.67;100.00
18795;BME280;29610;49.022;12.114;2022-09-03T09:32:59;97587.16;;;21.75;100.00
18795;BME280;29610;49.022;12.114;2022-09-03T09:35:27;97585.19;;;22.04;100.00
18795;BME280;29610;49.022;12.114;2022-09-03T09:37:57;97585.97;;;22.11;100.00
18795;BME280;29610;49.022;12.114;2022-09-03T09:40:31;97589.94;;;21.57;100.00
18795;BME280;29610;49.022;12.114;2022-09-03T09:43:09;97580.88;;;21.32;100.00
18795;BME280;29610;49.022;12.114;2022-09-03T09:45:41;97581.66;;;21.19;100.00
18795;BME280;29610;49.022;12.114;2022-09-03T09:48:20;97578.47;;;21.10;100.00
18795;BME280;29610;49.022;12.114;2022-09-03T09:51:05;97572.13;;;21.02;100.00
18795;BME280;29610;49.022;12.114;2022-09-03T09:53:34;97580.06;;;21.11;100.00
18795;BME280;29610;49.022;12.114;2022-09-03T09:56:07;97577.28;;;21.11;100.00
18795;BME280;29610;49.022;12.114;2022-09-03T09:58:36;97570.59;;;21.29;100.00
18795;BME280;29610;49.022;12.114;2022-09-03T10:01:11;97569.78;;;21.43;100.00
18795;BME280;29610;49.022;12.114;2022-09-03T10:03:51;97560.31;;;21.93;100.00
18795;BME280;29610;49.022;12.114;2022-09-03T10:06:23;97559.75;;;22.47;100.00
18795;BME280;29610;49.022;12.114;2022-09-03T10:09:13;97558.53;;;22.62;100.00
18795;BME280;29610;49.022;12.114;2022-09-03T10:11:46;97552.03;;;22.93;100.00
18795;BME280;29610;49.022;12.114;2022-09-03T10:14:25;97560.16;;;23.22;100.00
18795;BME280;29610;49.022;12.114;2022-09-03T10:17:04;97561.00;;;23.15;100.00
18795;BME280;29610;49.022;12.114;2022-09-03T10:19:45;97567.00;;;23.03;100.00
18795;BME280;29610;49.022;12.114;2022-09-03T10:22:41;97559.38;;;23.72;100.00
18795;BME280;29610;49.022;12.114;2022-09-03T10:25:29;97557.19;;;23.90;100.00
18795;BME280;29610;49.022;12.114;2022-09-03T10:28:05;97553.44;;;23.70;100.00
18795;BME280;29610;49.022;12.114;2022-09-03T10:31:17;97550.94;;;24.23;100.00
18795;BME280;29610;49.022;12.114;2022-09-03T10:34:00;97549.69;;;24.92;96.01
18795;BME280;29610;49.022;12.114;2022-09-03T10:36:40;97551.25;;;25.49;96.63
18795;BME280;29610;49.022;12.114;2022-09-03T10:39:20;97551.84;;;25.07;91.33
18795;BME280;29610;49.022;12.114;2022-09-03T10:42:06;97551.75;;;25.87;100.00
18795;BME280;29610;49.022;12.114;2022-09-03T10:44:58;97549.34;;;25.89;100.00
18795;BME280;29610;49.022;12.114;2022-09-03T10:47:56;97542.66;;;26.49;96.10
18795;BME280;29610;49.022;12.114;2022-09-03T10:50:37;97534.91;;;27.47;77.08
18795;BME280;29610;49.022;12.114;2022-09-03T10:53:21;97544.75;;;27.36;78.13
18795;BME280;29610;49.022;12.114;2022-09-03T10:56:00;97543.38;;;27.08;75.96
18795;BME280;29610;49.022;12.114;2022-09-03T10:59:05;97543.94;;;27.83;78.44
18795;BME280;29610;49.022;12.114;2022-09-03T11:01:51;97546.59;;;27.90;70.76
18795;BME280;29610;49.022;12.114;2022-09-03T11:04:34;97539.97;;;27.68;74.41
18795;BME280;29610;49.022;12.114;2022-09-03T11:07:13;97535.94;;;27.01;76.63
18795;BME280;29610;49.022;12.114;2022-09-03T11:09:54;97531.59;;;27.52;72.24
18795;BME280;29610;49.022;12.114;2022-09-03T11:12:31;97535.53;;;28.15;76.32
18795;BME280;29610;49.022;12.114;2022-09-03T11:15:06;97535.09;;;28.87;67.37
18795;BME280;29610;49.022;12.114;2022-09-03T11:17:45;97526.06;;;29.08;62.04
18795;BME280;29610;49.022;12.114;2022-09-03T11:20:20;97529.66;;;29.33;66.17
18795;BME280;29610;49.022;12.114;2022-09-03T11:22:52;97520.13;;;29.43;67.74
18795;BME280;29610;49.022;12.114;2022-09-03T11:25:29;97520.53;;;29.79;65.03
18795;BME280;29610;49.022;12.114;2022-09-03T11:28:12;97512.53;;;29.90;63.04
18795;BME280;29610;49.022;12.114;2022-09-03T11:31:02;97516.06;;;29.82;70.14
18795;BME280;29610;49.022;12.114;2022-09-03T11:33:42;97518.03;;;29.94;56.47
18795;BME280;29610;49.022;12.114;2022-09-03T11:36:13;97509.81;;;30.77;56.47
18795;BME280;29610;49.022;12.114;2022-09-03T11:38:50;97508.31;;;30.42;57.66
18795;BME280;29610;49.022;12.114;2022-09-03T11:41:25;97518.16;;;30.46;58.15
18795;BME280;29610;49.022;12.114;2022-09-03T11:43:54;97516.63;;;30.24;55.05
18795;BME280;29610;49.022;12.114;2022-09-03T11:46:30;97515.34;;;29.44;58.46
18795;BME280;29610;49.022;12.114;2022-09-03T11:49:12;97521.25;;;29.21;60.53
18795;BME280;29610;49.022;12.114;2022-09-03T11:51:58;97519.91;;;29.25;65.78
18795;BME280;29610;49.022;12.114;2022-09-03T11:54:32;97521.25;;;29.21;60.98
18795;BME280;29610;49.022;12.114;2022-09-03T11:57:13;97518.88;;;28.82;63.50
18795;BME280;29610;49.022;12.114;2022-09-03T11:59:43;97513.56;;;28.58;66.57
18795;BME280;29610;49.022;12.114;2022-09-03T12:02:25;97517.19;;;27.70;63.71
18795;BME280;29610;49.022;12.114;2022-09-03T12:05:16;97518.94;;;27.48;72.61
18795;BME280;29610;49.022;12.114;2022-09-03T12:08:39;97519.59;;;27.84;74.50
18795;BME280;29610;49.022;12.114;2022-09-03T12:11:40;97511.66;;;28.27;72.94
18795;BME280;29610;49.022;12.114;2022-09-03T12:14:22;97518.97;;;28.78;71.18
18795;BME280;29610;49.022;12.114;2022-09-03T12:17:09;97515.00;;;29.29;68.42
18795;BME280;29610;49.022;12.114;2022-09-03T12:19:44;97519.34;;;29.30;60.79
18795;BME280;29610;49.022;12.114;2022-09-03T12:22:21;97507.59;;;28.98;68.52
18795;BME280;29610;49.022;12.114;2022-09-03T12:24:50;97506.91;;;28.81;63.42
18795;BME280;29610;49.022;12.114;2022-09-03T12:27:21;97498.47;;;28.56;70.63
18795;BME280;29610;49.022;12.114;2022-09-03T12:29:57;97501.63;;;28.42;68.96
18795;BME280;29610;49.022;12.114;2022-09-03T12:32:30;97506.28;;;28.48;69.43
18795;BME280;29610;49.022;12.114;2022-09-03T12:35:12;97504.78;;;28.44;75.02
18795;BME280;29610;49.022;12.114;2022-09-03T12:38:02;97498.13;;;27.97;70.46
18795;BME280;29610;49.022;12.114;2022-09-03T12:40:41;97489.81;;;28.09;74.87
18795;BME280;29610;49.022;12.114;2022-09-03T12:43:30;97481.38;;;27.97;75.03
18795;BME280;29610;49.022;12.114;2022-09-03T12:46:14;97481.59;;;27.58;74.69
18795;BME280;29610;49.022;12.114;2022-09-03T12:48:52;97474.00;;;27.26;73.64
18795;BME280;29610;49.022;12.114;2022-09-03T12:51:42;97472.81;;;27.27;86.00
18795;BME280;29610;49.022;12.114;2022-09-03T12:54:21;97479.22;;;27.08;79.12
18795;BME280;29610;49.022;12.114;2022-09-03T12:56:55;97471.22;;;27.26;79.67
18795;BME280;29610;49.022;12.114;2022-09-03T12:59:29;97469.88;;;26.98;80.69
18795;BME280;29610;49.022;12.114;2022-09-03T13:02:05;97471.63;;;26.92;84.35
18795;BME280;29610;49.022;12.114;2022-09-03T13:04:41;97474.22;;;26.83;90.01
18795;BME280;29610;49.022;12.114;2022-09-03T13:07:18;97473.13;;;26.61;84.13
18795;BME280;29610;49.022;12.114;2022-09-03T13:09:58;97471.72;;;26.14;97.26
18795;BME280;29610;49.022;12.114;2022-09-03T13:12:33;97469.78;;;26.11;100.00
18795;BME280;29610;49.022;12.114;2022-09-03T13:15:18;97473.44;;;25.85;100.00
18795;BME280;29610;49.022;12.114;2022-09-03T13:18:09;97468.19;;;25.48;100.00
18795;BME280;29610;49.022;12.114;2022-09-03T13:20:53;97466.97;;;25.49;100.00
18795;BME280;29610;49.022;12.114;2022-09-03T13:27:03;97480.34;;;25.08;100.00
18795;BME280;29610;49.022;12.114;2022-09-03T13:29:56;97473.66;;;24.79;100.00